Time;durP1;ratioP1;P1;durP2;ratioP2;P2;SDS_P1;SDS_P2;PMS_P1;PMS_P2;Temp;Humidity;BMP_temperature;BMP_pressure;BME280_temperature;BME280_humidity;BME280_pressure;Samples;Min_cycle;Max_cycle;Signal;HPM_P1;HPM_P2
2022/08/31 00:05:32;;;;;;;;;;;;;;;28.79;46.40;96848.00;5096392;28;19930;-37
2022/08/31 00:07:57;;;;;;;;;;;;;;;28.78;46.48;96852.09;5095938;28;20373;-37
2022/08/31 00:10:26;;;;;;;;;;;;;;;28.77;46.52;96853.34;5095883;28;19914;-36
2022/08/31 00:12:52;;;;;;;;;;;;;;;28.73;46.67;96850.13;5096508;28;20289;-36
2022/08/31 00:15:19;;;;;;;;;;;;;;;28.69;46.50;96855.28;5095703;28;19916;-36
2022/08/31 00:17:44;;;;;;;;;;;;;;;28.72;46.44;96854.19;5095663;28;19908;-36
2022/08/31 00:20:11;;;;;;;;;;;;;;;28.71;46.67;96851.94;5095587;28;20042;-36
2022/08/31 00:22:36;;;;;;;;;;;;;;;28.65;46.88;96866.03;5095668;28;20297;-39
2022/08/31 00:25:01;;;;;;;;;;;;;;;28.63;46.80;96862.25;5094819;28;19915;-36
2022/08/31 00:27:27;;;;;;;;;;;;;;;28.65;46.68;96863.22;5077673;28;19908;-36
2022/08/31 00:29:52;;;;;;;;;;;;;;;28.66;46.69;96861.94;5095667;28;19908;-36
2022/08/31 00:32:17;;;;;;;;;;;;;;;28.66;46.92;96856.38;5077302;28;20363;-37
2022/08/31 00:34:43;;;;;;;;;;;;;;;28.61;46.95;96860.00;5095571;28;19915;-36
2022/08/31 00:37:08;;;;;;;;;;;;;;;28.63;46.82;96862.25;5095348;28;19910;-37
2022/08/31 00:39:33;;;;;;;;;;;;;;;28.68;46.78;96858.63;5095332;28;19915;-36
2022/08/31 00:41:58;;;;;;;;;;;;;;;28.66;46.65;96853.56;5095449;28;19915;-36
2022/08/31 00:44:24;;;;;;;;;;;;;;;28.67;46.73;96843.91;5095306;28;19920;-36
2022/08/31 00:46:49;;;;;;;;;;;;;;;28.72;46.41;96843.03;5092930;28;19908;-36
2022/08/31 00:49:20;;;;;;;;;;;;;;;28.68;46.82;96842.63;5094660;28;19958;-36
2022/08/31 00:51:52;;;;;;;;;;;;;;;28.68;46.70;96839.09;5095462;28;19915;-38
2022/08/31 00:54:19;;;;;;;;;;;;;;;28.65;46.85;96838.13;5095143;28;19908;-36
2022/08/31 00:56:45;;;;;;;;;;;;;;;28.70;46.61;96840.03;5094944;28;20006;-36
2022/08/31 00:59:11;;;;;;;;;;;;;;;28.62;46.72;96838.44;5094899;28;20402;-36
2022/08/31 01:01:37;;;;;;;;;;;;;;;28.66;46.63;96831.25;5094889;28;19912;-37
2022/08/31 01:04:03;;;;;;;;;;;;;;;28.53;46.63;96826.44;5094846;28;20365;-36
2022/08/31 01:06:28;;;;;;;;;;;;;;;28.51;46.61;96823.41;5094814;28;19958;-36
2022/08/31 01:08:57;;;;;;;;;;;;;;;28.57;46.51;96818.47;5094693;28;20431;-36
2022/08/31 01:11:22;;;;;;;;;;;;;;;28.70;46.16;96817.69;5094710;28;19961;-36
2022/08/31 01:13:48;;;;;;;;;;;;;;;28.55;46.64;96823.84;5094835;28;19912;-37
2022/08/31 01:16:17;;;;;;;;;;;;;;;28.63;46.28;96831.56;5095012;28;19977;-36
2022/08/31 01:18:43;;;;;;;;;;;;;;;28.64;46.32;96827.50;5094635;28;19908;-37
2022/08/31 01:21:18;;;;;;;;;;;;;;;28.67;45.97;96824.38;5094590;28;20423;-36
2022/08/31 01:23:43;;;;;;;;;;;;;;;28.54;46.34;96818.81;5094596;28;19961;-37
2022/08/31 01:26:12;;;;;;;;;;;;;;;28.56;46.20;96819.03;5094393;28;19912;-37
2022/08/31 01:28:37;;;;;;;;;;;;;;;28.70;45.81;96814.16;5094419;28;20452;-36
2022/08/31 01:31:05;;;;;;;;;;;;;;;28.65;46.05;96821.38;5094353;28;19942;-36
2022/08/31 01:33:31;;;;;;;;;;;;;;;28.62;45.94;96816.13;5094513;28;19915;-36
2022/08/31 01:35:57;;;;;;;;;;;;;;;28.56;46.05;96813.44;5076157;28;19908;-36
2022/08/31 01:38:22;;;;;;;;;;;;;;;28.61;46.04;96820.94;5094159;28;19914;-36
2022/08/31 01:40:50;;;;;;;;;;;;;;;28.56;45.88;96816.25;5094442;28;19916;-36
2022/08/31 01:43:15;;;;;;;;;;;;;;;28.57;46.05;96809.34;5094096;28;19916;-36
2022/08/31 01:45:41;;;;;;;;;;;;;;;28.56;45.83;96808.59;5094107;28;19908;-36
2022/08/31 01:48:06;;;;;;;;;;;;;;;28.57;45.91;96798.94;5094182;28;19907;-36
2022/08/31 01:50:31;;;;;;;;;;;;;;;28.56;45.79;96799.50;5094041;28;19911;-36
2022/08/31 01:52:57;;;;;;;;;;;;;;;28.50;45.88;96796.06;5094163;28;19957;-36
2022/08/31 01:55:22;;;;;;;;;;;;;;;28.46;45.94;96798.41;5093981;28;19931;-36
2022/08/31 01:57:48;;;;;;;;;;;;;;;28.57;45.43;96804.50;5093926;28;19919;-37
2022/08/31 02:00:13;;;;;;;;;;;;;;;28.50;45.64;96798.84;5093935;28;19980;-37
2022/08/31 02:02:38;;;;;;;;;;;;;;;28.46;45.57;96804.75;5094157;28;19934;-36
2022/08/31 02:05:04;;;;;;;;;;;;;;;28.47;45.63;96797.88;5093870;28;19961;-36
2022/08/31 02:07:29;;;;;;;;;;;;;;;28.51;45.35;96801.09;5094030;28;19957;-36
2022/08/31 02:09:55;;;;;;;;;;;;;;;28.60;45.20;96788.75;5093701;28;19990;-36
2022/08/31 02:12:20;;;;;;;;;;;;;;;28.53;45.54;96786.63;5093947;28;20262;-36
2022/08/31 02:14:45;;;;;;;;;;;;;;;28.45;45.55;96785.75;5094186;28;19961;-36
2022/08/31 02:17:11;;;;;;;;;;;;;;;28.46;45.62;96787.25;5093842;28;19939;-36
2022/08/31 02:19:36;;;;;;;;;;;;;;;28.46;45.65;96776.09;5093723;28;19908;-36
2022/08/31 02:22:01;;;;;;;;;;;;;;;28.40;46.03;96773.44;5093732;28;19965;-36
2022/08/31 02:24:27;;;;;;;;;;;;;;;28.44;45.55;96768.25;5093848;28;20257;-36
2022/08/31 02:26:52;;;;;;;;;;;;;;;28.38;45.89;96764.84;5093980;28;19908;-35
2022/08/31 02:29:17;;;;;;;;;;;;;;;28.45;45.65;96755.81;5093755;28;20399;-36
2022/08/31 02:31:43;;;;;;;;;;;;;;;28.40;45.81;96751.13;5093722;28;19943;-36
2022/08/31 02:34:09;;;;;;;;;;;;;;;28.41;45.59;96768.59;5093736;28;19912;-35
2022/08/31 02:36:35;;;;;;;;;;;;;;;28.43;45.62;96754.88;5093569;28;19908;-35
2022/08/31 02:39:00;;;;;;;;;;;;;;;28.45;45.85;96755.06;5093438;28;19908;-35
2022/08/31 02:41:25;;;;;;;;;;;;;;;28.45;45.63;96757.84;5093807;28;20057;-35
2022/08/31 02:43:50;;;;;;;;;;;;;;;28.35;45.89;96748.44;5093557;28;19923;-38
2022/08/31 02:46:16;;;;;;;;;;;;;;;28.53;45.42;96753.13;5093420;28;20412;-36
2022/08/31 02:48:41;;;;;;;;;;;;;;;28.49;45.63;96761.81;5096072;28;19915;-36
2022/08/31 02:51:08;;;;;;;;;;;;;;;28.51;45.64;96758.50;5097476;28;19912;-36
2022/08/31 02:53:34;;;;;;;;;;;;;;;28.47;45.58;96758.06;5097515;28;19999;-36
2022/08/31 02:56:00;;;;;;;;;;;;;;;28.54;45.39;96766.56;5097403;28;19940;-36
2022/08/31 02:58:25;;;;;;;;;;;;;;;28.57;45.29;96768.25;5097430;28;20003;-37
2022/08/31 03:00:51;;;;;;;;;;;;;;;28.37;45.57;96766.13;5097321;28;19912;-36
2022/08/31 03:03:16;;;;;;;;;;;;;;;28.52;45.30;96774.69;5097206;28;19914;-35
2022/08/31 03:05:41;;;;;;;;;;;;;;;28.51;45.33;96776.00;5097595;28;19912;-36
2022/08/31 03:08:07;;;;;;;;;;;;;;;28.50;45.41;96770.94;5078930;28;19934;-36
2022/08/31 03:10:32;;;;;;;;;;;;;;;28.51;45.29;96772.44;5097145;28;19915;-36
2022/08/31 03:12:57;;;;;;;;;;;;;;;28.50;45.27;96773.72;5097297;28;19942;-36
2022/08/31 03:15:23;;;;;;;;;;;;;;;28.46;45.14;96778.88;5097206;28;20049;-36
2022/08/31 03:17:49;;;;;;;;;;;;;;;28.44;45.29;96778.66;5097184;28;19926;-36
2022/08/31 03:20:15;;;;;;;;;;;;;;;28.50;44.93;96782.84;5096991;28;19914;-36
2022/08/31 03:22:40;;;;;;;;;;;;;;;28.57;44.86;96787.78;5096929;28;19912;-36
2022/08/31 03:25:07;;;;;;;;;;;;;;;28.60;44.79;96788.75;5096929;28;20308;-36
2022/08/31 03:27:32;;;;;;;;;;;;;;;28.55;44.81;96789.63;5096691;28;19908;-37
2022/08/31 03:29:57;;;;;;;;;;;;;;;28.45;45.23;96780.16;5096935;28;19908;-36
2022/08/31 03:32:23;;;;;;;;;;;;;;;28.59;44.77;96790.03;5078578;28;20284;-36
2022/08/31 03:34:53;;;;;;;;;;;;;;;28.49;45.02;96780.59;5096608;28;20334;-36
2022/08/31 03:37:20;;;;;;;;;;;;;;;28.58;44.84;96775.31;5096695;28;19911;-37
2022/08/31 03:39:45;;;;;;;;;;;;;;;28.54;44.90;96771.38;5096599;28;19908;-37
2022/08/31 03:42:12;;;;;;;;;;;;;;;28.56;44.80;96774.38;5096263;28;19919;-37
2022/08/31 03:44:37;;;;;;;;;;;;;;;28.54;44.80;96776.97;5096862;28;19962;-36
2022/08/31 03:47:02;;;;;;;;;;;;;;;28.57;44.92;96771.03;5096340;28;19908;-36
2022/08/31 03:49:28;;;;;;;;;;;;;;;28.60;44.70;96764.38;5096330;28;19961;-36
2022/08/31 03:51:53;;;;;;;;;;;;;;;28.53;45.12;96767.09;5096286;28;19908;-36
2022/08/31 03:54:18;;;;;;;;;;;;;;;28.55;44.88;96756.13;5096421;28;19996;-37
2022/08/31 03:56:45;;;;;;;;;;;;;;;28.61;44.74;96765.13;5096480;28;20331;-36
2022/08/31 03:59:11;;;;;;;;;;;;;;;28.63;44.77;96767.38;5094919;28;20332;-36
2022/08/31 04:01:36;;;;;;;;;;;;;;;28.59;44.43;96764.91;5096056;28;19919;-35
2022/08/31 04:04:01;;;;;;;;;;;;;;;28.67;44.46;96756.66;5096091;28;19908;-36
2022/08/31 04:06:27;;;;;;;;;;;;;;;28.56;44.66;96752.78;5096208;28;20342;-35
2022/08/31 04:08:52;;;;;;;;;;;;;;;28.59;44.65;96754.50;5096040;28;19951;-36
2022/08/31 04:11:18;;;;;;;;;;;;;;;28.62;44.56;96755.47;5096169;28;19935;-36
2022/08/31 04:13:44;;;;;;;;;;;;;;;28.62;44.50;96752.69;5077773;28;20289;-36
2022/08/31 04:16:10;;;;;;;;;;;;;;;28.59;44.67;96754.50;5095878;28;19908;-36
2022/08/31 04:18:36;;;;;;;;;;;;;;;28.64;44.45;96750.09;5095928;28;19960;-37
2022/08/31 04:21:02;;;;;;;;;;;;;;;28.58;44.48;96750.22;5095781;28;19916;-35
2022/08/31 04:23:28;;;;;;;;;;;;;;;28.66;44.52;96755.91;5095609;28;19908;-37
2022/08/31 04:25:54;;;;;;;;;;;;;;;28.62;44.53;96754.72;5095660;28;20437;-35
2022/08/31 04:28:20;;;;;;;;;;;;;;;28.56;44.66;96760.44;5095987;28;19931;-37
2022/08/31 04:30:47;;;;;;;;;;;;;;;28.51;44.75;96761.28;5095451;28;20278;-37
2022/08/31 04:33:12;;;;;;;;;;;;;;;28.59;44.47;96762.88;5096175;28;19907;-37
2022/08/31 04:35:39;;;;;;;;;;;;;;;28.55;44.59;96758.94;5095850;28;19935;-37
2022/08/31 04:38:04;;;;;;;;;;;;;;;28.56;44.57;96752.78;5095363;28;19908;-37
2022/08/31 04:40:29;;;;;;;;;;;;;;;28.59;44.57;96756.53;5095347;28;19954;-36
2022/08/31 04:42:55;;;;;;;;;;;;;;;28.62;44.39;96754.72;5095062;28;19919;-36
2022/08/31 04:45:20;;;;;;;;;;;;;;;28.62;44.53;96761.06;5095312;28;20285;-36
2022/08/31 04:47:45;;;;;;;;;;;;;;;28.57;44.50;96764.69;5095348;28;19911;-36
2022/08/31 04:50:12;;;;;;;;;;;;;;;28.58;44.47;96761.38;5095171;28;19912;-35
2022/08/31 04:52:37;;;;;;;;;;;;;;;28.58;44.52;96769.75;5095020;28;19908;-36
2022/08/31 04:55:03;;;;;;;;;;;;;;;28.58;44.58;96766.19;5095364;28;19914;-36
2022/08/31 04:57:30;;;;;;;;;;;;;;;28.55;44.65;96768.06;5095318;28;19973;-36
2022/08/31 04:59:55;;;;;;;;;;;;;;;28.57;44.38;96773.81;5095022;28;19961;-36
2022/08/31 05:02:21;;;;;;;;;;;;;;;28.60;44.49;96775.53;5094944;28;20006;-36
2022/08/31 05:04:46;;;;;;;;;;;;;;;28.60;44.46;96766.41;5076631;28;19940;-36
2022/08/31 05:07:11;;;;;;;;;;;;;;;28.51;44.59;96762.03;5094900;28;20004;-36
2022/08/31 05:09:37;;;;;;;;;;;;;;;28.55;44.73;96764.50;5094787;28;19908;-36
2022/08/31 05:12:02;;;;;;;;;;;;;;;28.51;44.85;96762.03;5094496;28;19907;-36
2022/08/31 05:14:27;;;;;;;;;;;;;;;28.55;44.69;96761.72;5094807;28;20392;-36
2022/08/31 05:16:53;;;;;;;;;;;;;;;28.52;44.77;96752.38;5094635;28;19908;-36
2022/08/31 05:19:19;;;;;;;;;;;;;;;28.55;44.75;96750.56;5094535;28;19908;-36
2022/08/31 05:21:44;;;;;;;;;;;;;;;28.54;44.90;96760.97;5094576;28;19934;-36
2022/08/31 05:24:10;;;;;;;;;;;;;;;28.52;45.06;96763.53;5094830;28;19954;-36
2022/08/31 05:26:37;;;;;;;;;;;;;;;28.50;44.68;96754.22;5094659;28;19915;-36
2022/08/31 05:29:04;;;;;;;;;;;;;;;28.54;44.90;96766.56;5094229;28;20372;-36
2022/08/31 05:31:30;;;;;;;;;;;;;;;28.52;44.99;96762.78;5094431;28;19984;-37
2022/08/31 05:33:56;;;;;;;;;;;;;;;28.51;45.02;96750.88;5076257;28;20335;-36
2022/08/31 05:36:22;;;;;;;;;;;;;;;28.52;45.07;96762.78;5076350;28;19908;-36
2022/08/31 05:38:47;;;;;;;;;;;;;;;28.55;45.18;96758.94;5076040;28;20286;-35
2022/08/31 05:41:13;;;;;;;;;;;;;;;28.51;45.22;96756.47;5094372;28;20381;-36
2022/08/31 05:43:38;;;;;;;;;;;;;;;28.51;45.28;96764.09;5072639;28;20392;-36
2022/08/31 05:46:05;;;;;;;;;;;;;;;28.51;45.27;96759.25;5073955;28;20376;-36
2022/08/31 05:48:32;;;;;;;;;;;;;;;28.56;45.25;96763.22;5073380;28;19935;-37
2022/08/31 05:51:02;;;;;;;;;;;;;;;28.56;45.14;96761.16;5054185;28;19912;-36
2022/08/31 05:53:28;;;;;;;;;;;;;;;28.62;45.25;96757.50;5054164;28;20398;-36
2022/08/31 05:56:00;;;;;;;;;;;;;;;28.54;45.30;96755.38;5053920;28;19909;-37
2022/08/31 05:58:25;;;;;;;;;;;;;;;28.55;45.27;96745.72;5053825;28;19908;-36
2022/08/31 06:00:50;;;;;;;;;;;;;;;28.55;45.21;96756.13;5053747;28;19908;-36
2022/08/31 06:03:16;;;;;;;;;;;;;;;28.51;45.80;96750.88;5053782;28;20060;-37
2022/08/31 06:05:41;;;;;;;;;;;;;;;28.47;45.73;96756.03;5054013;28;19908;-36
2022/08/31 06:08:06;;;;;;;;;;;;;;;28.54;45.49;96760.22;5061203;28;19919;-35
2022/08/31 06:10:32;;;;;;;;;;;;;;;28.53;45.51;96761.50;5073763;28;19967;-36
2022/08/31 06:12:57;;;;;;;;;;;;;;;28.47;45.69;96755.28;5073944;28;19908;-36
2022/08/31 06:15:22;;;;;;;;;;;;;;;28.47;45.65;96758.81;5073211;28;19908;-36
2022/08/31 06:17:48;;;;;;;;;;;;;;;28.49;45.70;96759.03;5058901;28;20393;-36
2022/08/31 06:20:14;;;;;;;;;;;;;;;28.48;45.68;96756.78;5053462;28;20050;-35
2022/08/31 06:22:44;;;;;;;;;;;;;;;28.45;45.76;96761.38;5054228;28;20009;-36
2022/08/31 06:25:10;;;;;;;;;;;;;;;28.52;45.66;96760.00;5057752;28;19909;-36
2022/08/31 06:27:37;;;;;;;;;;;;;;;28.45;46.03;96755.06;5057578;28;19915;-36
2022/08/31 06:30:03;;;;;;;;;;;;;;;28.47;45.94;96766.44;5057088;28;19912;-39
2022/08/31 06:32:30;;;;;;;;;;;;;;;28.39;46.33;96760.03;5057396;28;19912;-36
2022/08/31 06:34:56;;;;;;;;;;;;;;;28.46;46.12;96762.91;5085957;28;20309;-36
2022/08/31 06:37:21;;;;;;;;;;;;;;;28.44;46.11;96770.28;5075559;28;19919;-36
2022/08/31 06:39:46;;;;;;;;;;;;;;;28.40;46.25;96767.09;5085010;28;20282;-35
2022/08/31 06:42:12;;;;;;;;;;;;;;;28.38;46.48;96761.31;5095882;28;19923;-36
2022/08/31 06:44:37;;;;;;;;;;;;;;;28.40;46.39;96759.47;5114523;28;19920;-37
2022/08/31 06:47:02;;;;;;;;;;;;;;;28.37;46.09;96768.16;5116255;28;19968;-35
2022/08/31 06:49:28;;;;;;;;;;;;;;;28.41;46.53;96766.56;5116252;28;20002;-35
2022/08/31 06:51:53;;;;;;;;;;;;;;;28.41;46.43;96763.78;5107219;28;19973;-37
2022/08/31 06:54:19;;;;;;;;;;;;;;;28.42;46.50;96764.53;5095982;28;19912;-37
2022/08/31 06:56:44;;;;;;;;;;;;;;;28.39;46.39;96769.13;5095428;28;19908;-36
2022/08/31 06:59:10;;;;;;;;;;;;;;;28.43;46.37;96771.63;5095689;28;20347;-36
2022/08/31 07:01:36;;;;;;;;;;;;;;;28.38;46.45;96764.09;5095896;28;19912;-36
2022/08/31 07:04:03;;;;;;;;;;;;;;;28.34;46.63;96774.81;5095554;28;19912;-36
2022/08/31 07:06:30;;;;;;;;;;;;;;;28.39;46.58;96776.75;5095818;28;20006;-35
2022/08/31 07:08:59;;;;;;;;;;;;;;;28.39;46.67;96779.53;5095391;28;19912;-36
2022/08/31 07:11:34;;;;;;;;;;;;;;;28.37;46.77;96785.66;5095347;28;20014;-36
2022/08/31 07:14:00;;;;;;;;;;;;;;;28.33;47.20;96784.47;5095481;28;19918;-37
2022/08/31 07:16:26;;;;;;;;;;;;;;;28.31;47.07;96787.06;5094369;28;19908;-37
2022/08/31 07:18:53;;;;;;;;;;;;;;;28.31;46.64;96795.44;5095413;28;20400;-36
2022/08/31 07:21:18;;;;;;;;;;;;;;;28.34;47.22;96781.16;5095080;28;20381;-35
2022/08/31 07:23:44;;;;;;;;;;;;;;;28.27;47.42;96784.59;5095176;28;19908;-35
2022/08/31 07:26:11;;;;;;;;;;;;;;;28.37;47.43;96770.97;5077052;28;19958;-36
2022/08/31 07:28:37;;;;;;;;;;;;;;;28.40;47.03;96764.31;5105723;28;19908;-36
2022/08/31 07:31:04;;;;;;;;;;;;;;;28.35;47.20;96768.69;5115690;28;19923;-37
2022/08/31 07:33:36;;;;;;;;;;;;;;;28.48;46.84;96770.72;5114855;28;20467;-36
2022/08/31 07:36:03;;;;;;;;;;;;;;;28.38;47.36;96764.09;5115421;28;19914;-37
2022/08/31 07:43:58;;;;;;;;;;;;;;;28.43;47.10;96777.19;5114886;28;19923;-36
2022/08/31 07:46:30;;;;;;;;;;;;;;;28.42;47.12;96784.06;5114915;28;19960;-36
2022/08/31 07:48:56;;;;;;;;;;;;;;;28.44;47.02;96779.41;5115200;28;19912;-39
2022/08/31 07:51:23;;;;;;;;;;;;;;;28.47;46.94;96791.53;5115185;28;20006;-35
2022/08/31 07:53:49;;;;;;;;;;;;;;;28.46;47.11;96782.44;5114992;28;19953;-36
2022/08/31 07:56:18;;;;;;;;;;;;;;;28.19;47.48;96784.47;5114998;28;19942;-37
2022/08/31 07:58:46;;;;;;;;;;;;;;;28.24;47.44;96799.59;5114784;28;19960;-35
2022/08/31 08:01:13;;;;;;;;;;;;;;;28.38;47.12;96798.31;5107476;28;19912;-36
2022/08/31 08:03:42;;;;;;;;;;;;;;;28.42;46.89;96792.44;5096254;28;19908;-36
2022/08/31 08:06:11;;;;;;;;;;;;;;;28.46;46.57;96798.41;5096123;28;19908;-35
2022/08/31 08:08:36;;;;;;;;;;;;;;;28.34;46.81;96799.91;5096066;28;20421;-36
2022/08/31 08:11:01;;;;;;;;;;;;;;;28.20;46.60;96796.38;5095943;28;20001;-36
2022/08/31 08:13:27;;;;;;;;;;;;;;;28.15;46.34;96795.19;5095974;28;20012;-36
2022/08/31 08:15:52;;;;;;;;;;;;;;;28.29;46.33;96806.38;5095969;28;20007;-36
2022/08/31 08:18:17;;;;;;;;;;;;;;;28.13;46.08;96811.69;5096145;28;20354;-36
2022/08/31 08:20:43;;;;;;;;;;;;;;;28.28;45.92;96811.19;5095719;28;19930;-36
2022/08/31 08:23:13;;;;;;;;;;;;;;;27.15;47.29;96810.75;5095069;28;19912;-34
2022/08/31 08:25:39;;;;;;;;;;;;;;;27.52;47.01;96809.94;5095769;28;19912;-34
2022/08/31 08:28:04;;;;;;;;;;;;;;;27.85;45.72;96814.22;5077630;28;19915;-34
2022/08/31 08:30:29;;;;;;;;;;;;;;;28.08;45.04;96820.91;5095660;28;20407;-34
2022/08/31 08:32:58;;;;;;;;;;;;;;;28.10;45.13;96815.53;5095473;28;20350;-34
2022/08/31 08:35:30;;;;;;;;;;;;;;;28.14;44.87;96816.00;5095365;28;19953;-34
2022/08/31 08:37:56;;;;;;;;;;;;;;;28.23;44.85;96821.16;5095780;28;19908;-34
2022/08/31 08:40:29;;;;;;;;;;;;;;;28.26;44.82;96813.78;5095499;28;19908;-35
2022/08/31 08:42:55;;;;;;;;;;;;;;;28.28;44.98;96805.63;5095362;28;19939;-35
2022/08/31 08:45:20;;;;;;;;;;;;;;;28.29;44.74;96807.13;5094859;28;20385;-34
2022/08/31 08:47:48;;;;;;;;;;;;;;;28.04;45.55;96803.75;5095354;28;19990;-36
2022/08/31 08:50:17;;;;;;;;;;;;;;;28.07;45.19;96794.31;5095275;28;19954;-35
2022/08/31 08:52:44;;;;;;;;;;;;;;;28.16;44.66;96791.13;5095270;28;19989;-35
2022/08/31 08:55:11;;;;;;;;;;;;;;;28.22;44.26;96796.59;5095236;28;20045;-34
2022/08/31 08:57:39;;;;;;;;;;;;;;;28.05;44.30;96796.91;5095029;28;19908;-34
2022/08/31 09:00:08;;;;;;;;;;;;;;;28.04;44.63;96791.84;5095015;28;19976;-34
2022/08/31 09:02:39;;;;;;;;;;;;;;;27.97;45.26;96793.22;5094974;28;20463;-34
2022/08/31 09:05:13;;;;;;;;;;;;;;;27.89;44.00;96787.53;5095011;28;19912;-34
2022/08/31 09:07:55;;;;;;;;;;;;;;;28.08;43.12;96779.06;5094978;28;19961;-36
2022/08/31 09:10:49;;;;;;;;;;;;;;;28.08;42.95;96781.88;5095285;28;19908;-34
2022/08/31 09:13:18;;;;;;;;;;;;;;;28.13;42.53;96794.97;5081583;28;20003;-35
2022/08/31 09:15:49;;;;;;;;;;;;;;;28.16;42.77;96798.72;5094692;28;19907;-34
2022/08/31 09:18:37;;;;;;;;;;;;;;;28.12;42.43;96798.28;5094689;28;20388;-35
2022/08/31 09:21:19;;;;;;;;;;;;;;;28.05;43.21;96805.25;5094553;28;19908;-35
2022/08/31 09:23:47;;;;;;;;;;;;;;;28.07;41.84;96802.66;5094792;28;19939;-34
2022/08/31 09:26:16;;;;;;;;;;;;;;;28.17;41.76;96806.56;5094666;28;19915;-34
2022/08/31 09:28:45;;;;;;;;;;;;;;;28.13;41.86;96800.53;5094967;28;19915;-35
2022/08/31 09:31:35;;;;;;;;;;;;;;;28.04;42.29;96800.22;5094317;28;20289;-35
2022/08/31 09:34:02;;;;;;;;;;;;;;;28.13;42.86;96799.78;5094427;28;20281;-34
2022/08/31 09:36:32;;;;;;;;;;;;;;;28.14;42.19;96792.94;5094397;28;19908;-35
2022/08/31 09:39:12;;;;;;;;;;;;;;;28.19;42.83;96789.28;5094804;28;19914;-34
2022/08/31 09:41:37;;;;;;;;;;;;;;;28.24;42.07;96786.41;5094797;28;19916;-34
2022/08/31 09:44:35;;;;;;;;;;;;;;;28.23;42.01;96776.53;5094154;28;19916;-34
2022/08/31 09:47:05;;;;;;;;;;;;;;;28.16;42.47;96776.41;5060272;28;19931;-34
2022/08/31 09:49:35;;;;;;;;;;;;;;;28.09;42.19;96766.66;5094406;28;20053;-34
2022/08/31 09:52:19;;;;;;;;;;;;;;;28.14;42.60;96771.38;5075940;28;19916;-34
2022/08/31 09:55:13;;;;;;;;;;;;;;;28.12;42.02;96768.38;5094177;28;19908;-34
2022/08/31 09:57:55;;;;;;;;;;;;;;;27.96;42.47;96760.31;5094221;28;19916;-34
2022/08/31 10:00:37;;;;;;;;;;;;;;;28.04;42.13;96759.16;5092714;28;20002;-34
2022/08/31 10:03:12;;;;;;;;;;;;;;;28.20;42.56;96760.13;5093576;28;19918;-35
2022/08/31 10:05:42;;;;;;;;;;;;;;;28.22;42.49;96758.31;5094200;28;19915;-34
2022/08/31 10:08:10;;;;;;;;;;;;;;;28.03;41.69;96754.84;5094233;28;19908;-34
2022/08/31 10:10:37;;;;;;;;;;;;;;;28.16;42.22;96759.69;5094043;28;19908;-34
2022/08/31 10:13:11;;;;;;;;;;;;;;;27.72;42.03;96750.09;5093961;28;19945;-35
2022/08/31 10:15:47;;;;;;;;;;;;;;;27.89;41.92;96753.34;5093788;28;19960;-34
2022/08/31 10:18:25;;;;;;;;;;;;;;;28.04;41.83;96742.44;5094342;28;20360;-35
2022/08/31 10:21:06;;;;;;;;;;;;;;;28.16;42.00;96752.06;5093947;28;19956;-34
2022/08/31 10:23:53;;;;;;;;;;;;;;;28.10;42.07;96739.50;5093810;28;20053;-34
2022/08/31 10:26:30;;;;;;;;;;;;;;;28.09;42.16;96741.53;5093765;28;19908;-34
2022/08/31 10:28:58;;;;;;;;;;;;;;;27.86;42.31;96727.28;5075657;28;19908;-34
2022/08/31 10:31:32;;;;;;;;;;;;;;;28.11;42.13;96733.41;5093908;28;19915;-35
2022/08/31 10:36:53;;;;;;;;;;;;;;;28.14;42.60;96734.38;5094036;28;19960;-34
2022/08/31 10:39:33;;;;;;;;;;;;;;;28.11;42.87;96727.06;5093717;28;19991;-35
2022/08/31 10:42:04;;;;;;;;;;;;;;;28.19;42.18;96736.31;5093519;28;20381;-34
2022/08/31 10:44:35;;;;;;;;;;;;;;;28.15;42.63;96724.72;5093592;28;19919;-34
2022/08/31 10:47:04;;;;;;;;;;;;;;;28.29;42.71;96733.84;5093530;28;19912;-34
2022/08/31 10:49:34;;;;;;;;;;;;;;;28.22;42.61;96727.63;5093611;28;19933;-34
2022/08/31 10:52:04;;;;;;;;;;;;;;;28.27;42.59;96725.28;5093884;28;19918;-34
2022/08/31 10:54:34;;;;;;;;;;;;;;;28.29;42.40;96725.50;5075278;28;19912;-35
2022/08/31 10:57:18;;;;;;;;;;;;;;;28.23;42.88;96711.66;5093454;28;19947;-34
2022/08/31 11:00:00;;;;;;;;;;;;;;;28.27;42.49;96708.53;5093562;28;19915;-34
2022/08/31 11:02:36;;;;;;;;;;;;;;;28.21;42.96;96697.50;5093429;28;19912;-34
2022/08/31 11:05:02;;;;;;;;;;;;;;;28.11;43.11;96711.09;5093771;28;19958;-34
2022/08/31 11:07:27;;;;;;;;;;;;;;;28.09;43.36;96710.88;5093533;28;19931;-34
2022/08/31 11:10:02;;;;;;;;;;;;;;;28.20;43.33;96707.88;5095890;28;19908;-35
2022/08/31 11:12:32;;;;;;;;;;;;;;;28.24;43.23;96702.75;5096976;28;20037;-34
2022/08/31 11:15:01;;;;;;;;;;;;;;;28.24;43.08;96702.75;5097266;28;19908;-35
2022/08/31 11:17:33;;;;;;;;;;;;;;;28.30;43.19;96713.03;5097157;28;19908;-35
2022/08/31 11:20:10;;;;;;;;;;;;;;;28.29;43.15;96709.50;5097184;28;19912;-34
2022/08/31 11:22:36;;;;;;;;;;;;;;;28.30;43.12;96702.66;5096840;28;20002;-35
2022/08/31 11:25:02;;;;;;;;;;;;;;;28.32;43.35;96696.50;5097435;28;19915;-34
2022/08/31 11:27:40;;;;;;;;;;;;;;;28.29;43.36;96692.03;5096742;28;20366;-34
2022/08/31 11:30:11;;;;;;;;;;;;;;;28.30;43.27;96690.75;5078603;28;20277;-34
2022/08/31 11:32:44;;;;;;;;;;;;;;;28.27;43.61;96691.81;5097175;28;20372;-34
2022/08/31 11:35:10;;;;;;;;;;;;;;;28.30;43.57;96685.91;5078590;28;19908;-35
2022/08/31 11:37:51;;;;;;;;;;;;;;;28.31;43.81;96689.44;5096628;28;20329;-35
2022/08/31 11:40:42;;;;;;;;;;;;;;;28.34;43.85;96691.88;5096601;28;20369;-34
2022/08/31 11:43:15;;;;;;;;;;;;;;;28.32;43.86;96699.28;5096390;28;19916;-35
2022/08/31 11:45:41;;;;;;;;;;;;;;;28.22;44.23;96690.63;5096660;28;20362;-34
2022/08/31 11:48:11;;;;;;;;;;;;;;;28.28;44.01;96687.72;5096658;28;19908;-34
2022/08/31 11:50:55;;;;;;;;;;;;;;;28.28;43.84;96693.31;5096457;28;19907;-34
2022/08/31 11:53:30;;;;;;;;;;;;;;;28.30;43.93;96696.31;5096413;28;19908;-34
2022/08/31 11:56:03;;;;;;;;;;;;;;;28.18;43.89;96701.38;5078281;28;19922;-34
2022/08/31 11:58:33;;;;;;;;;;;;;;;28.32;43.27;96707.66;5096589;28;19926;-34
2022/08/31 12:01:08;;;;;;;;;;;;;;;28.28;43.42;96699.63;5096142;28;20472;-34
2022/08/31 12:03:36;;;;;;;;;;;;;;;28.25;43.60;96697.91;5096248;28;20323;-34
2022/08/31 12:06:02;;;;;;;;;;;;;;;28.29;43.68;96692.03;5096405;28;20306;-34
2022/08/31 12:08:31;;;;;;;;;;;;;;;28.31;43.27;96689.44;5096281;28;19977;-35
2022/08/31 12:11:25;;;;;;;;;;;;;;;28.21;43.45;96692.66;5096150;28;19918;-35
2022/08/31 12:14:00;;;;;;;;;;;;;;;28.07;43.62;96695.97;5082448;28;19908;-35
2022/08/31 12:16:49;;;;;;;;;;;;;;;28.05;43.58;96699.31;5095923;28;19915;-35
2022/08/31 12:25:24;;;;;;;;;;;;;;;28.22;43.56;96683.00;5075077;28;19957;-34
2022/08/31 12:28:08;;;;;;;;;;;;;;;28.18;43.48;96681.84;5096062;28;20259;-34
2022/08/31 12:30:33;;;;;;;;;;;;;;;27.81;44.74;96685.59;5095866;28;20000;-35
2022/08/31 12:33:03;;;;;;;;;;;;;;;27.97;44.47;96680.97;5095862;28;19943;-34
2022/08/31 12:35:29;;;;;;;;;;;;;;;27.77;44.88;96683.13;5096074;28;20366;-34
2022/08/31 12:38:05;;;;;;;;;;;;;;;27.95;44.24;96681.50;5095970;28;19953;-34
2022/08/31 12:40:32;;;;;;;;;;;;;;;28.14;43.86;96668.19;5095759;28;19918;-34
2022/08/31 12:43:12;;;;;;;;;;;;;;;28.19;43.77;96670.13;5073387;28;20362;-34
2022/08/31 12:45:37;;;;;;;;;;;;;;;28.09;44.51;96676.66;5076201;28;19958;-34
2022/08/31 12:48:17;;;;;;;;;;;;;;;28.09;44.15;96657.91;5071378;28;20022;-34
2022/08/31 12:51:09;;;;;;;;;;;;;;;28.03;44.49;96665.66;5074136;28;20004;-34
2022/08/31 12:54:01;;;;;;;;;;;;;;;28.08;44.58;96664.00;5070547;28;19959;-34
2022/08/31 12:56:33;;;;;;;;;;;;;;;27.94;45.27;96666.09;5075521;28;20399;-34
2022/08/31 12:58:59;;;;;;;;;;;;;;;27.83;45.31;96660.72;5075086;28;19935;-33
2022/08/31 13:01:25;;;;;;;;;;;;;;;28.01;45.12;96661.88;5071857;28;19919;-35
2022/08/31 13:04:09;;;;;;;;;;;;;;;28.21;44.63;96655.66;5079255;28;19998;-35
2022/08/31 13:06:36;;;;;;;;;;;;;;;28.25;44.48;96658.88;5076026;28;19924;-34
2022/08/31 13:09:03;;;;;;;;;;;;;;;28.24;44.92;96660.91;5081474;28;19911;-34
2022/08/31 13:11:33;;;;;;;;;;;;;;;27.99;46.52;96662.44;5073253;28;19920;-34
2022/08/31 13:14:10;;;;;;;;;;;;;;;28.19;45.50;96664.56;5076512;28;19920;-35